createdAt,value
2017-06-15T00:00:29.270Z,20.63
2017-06-15T00:01:29.575Z,20.6
2017-06-15T00:02:29.268Z,20.59
2017-06-15T00:03:29.575Z,20.55
2017-06-15T00:04:29.270Z,20.59
2017-06-15T00:05:29.571Z,20.48
2017-06-15T00:06:29.265Z,20.49
2017-06-15T00:07:29.569Z,20.52
2017-06-15T00:08:29.570Z,20.44
2017-06-15T00:09:29.562Z,20.42
2017-06-15T00:10:29.566Z,20.49
2017-06-15T00:11:29.564Z,20.42
2017-06-15T00:12:28.951Z,20.49
2017-06-15T00:13:29.264Z,20.49
2017-06-15T00:14:29.559Z,20.37
2017-06-15T00:15:29.568Z,20.4
2017-06-15T00:16:29.557Z,20.37
2017-06-15T00:17:29.561Z,20.3
2017-06-15T00:18:29.555Z,20.26
2017-06-15T00:19:29.555Z,20.22
2017-06-15T00:20:29.550Z,20.29
2017-06-15T00:21:29.244Z,20.19
2017-06-15T00:22:29.555Z,20.17
2017-06-15T00:23:29.550Z,20.12
2017-06-15T00:24:29.243Z,20.22
2017-06-15T00:25:29.242Z,20.14
2017-06-15T00:26:28.935Z,20.14
2017-06-15T00:27:29.540Z,20.14
2017-06-15T00:28:29.542Z,20.08
2017-06-15T00:29:29.537Z,20.17
2017-06-15T00:30:29.540Z,20.08
2017-06-15T00:31:29.535Z,20.03
2017-06-15T00:32:29.230Z,20
2017-06-15T00:33:29.231Z,20.02
2017-06-15T00:34:29.570Z,19.99
2017-06-15T00:35:29.534Z,19.96
2017-06-15T00:36:29.537Z,19.96
2017-06-15T00:37:29.530Z,19.89
2017-06-15T00:38:29.529Z,20
2017-06-15T00:39:29.529Z,20.02
2017-06-15T00:40:29.524Z,19.96
2017-06-15T00:41:29.222Z,19.99
2017-06-15T00:42:29.523Z,19.92
2017-06-15T00:43:29.522Z,19.96
2017-06-15T00:44:29.521Z,19.96
2017-06-15T00:45:29.520Z,20.03
2017-06-15T00:46:29.523Z,19.9
2017-06-15T00:47:29.212Z,20.02
2017-06-15T00:48:29.210Z,19.96
2017-06-15T00:49:28.900Z,19.96
2017-06-15T00:50:28.901Z,19.94
2017-06-15T00:51:29.513Z,19.94
2017-06-15T00:52:29.512Z,19.92
2017-06-15T00:53:28.896Z,19.93
2017-06-15T00:54:29.517Z,19.9
2017-06-15T00:55:29.506Z,19.93
2017-06-15T00:56:29.507Z,19.93
2017-06-15T00:57:29.501Z,19.94
2017-06-15T00:58:29.502Z,19.9
2017-06-15T00:59:29.500Z,19.9
2017-06-15T01:00:29.192Z,19.9
2017-06-15T01:01:29.497Z,19.77
2017-06-15T01:02:29.190Z,19.72
2017-06-15T01:03:29.188Z,19.74
2017-06-15T01:04:29.497Z,19.75
2017-06-15T01:05:29.496Z,19.7
2017-06-15T01:06:29.491Z,19.74
2017-06-15T01:07:29.489Z,19.59
2017-06-15T01:08:29.488Z,19.57
2017-06-15T01:09:29.494Z,19.7
2017-06-15T01:10:29.488Z,19.56
2017-06-15T01:11:29.485Z,19.59
2017-06-15T01:12:29.180Z,19.56
2017-06-15T01:13:28.868Z,19.55
2017-06-15T01:14:29.176Z,19.56
2017-06-15T01:15:29.479Z,19.41
2017-06-15T01:16:29.486Z,19.48
2017-06-15T01:17:29.477Z,19.45
2017-06-15T01:18:29.172Z,19.45
2017-06-15T01:19:29.478Z,19.41
2017-06-15T01:20:29.483Z,19.38
2017-06-15T01:21:29.473Z,19.37
2017-06-15T01:22:29.472Z,19.38
2017-06-15T01:23:29.478Z,19.42
2017-06-15T01:24:29.163Z,19.26
2017-06-15T01:25:29.159Z,19.32
2017-06-15T01:26:29.161Z,19.37
2017-06-15T01:27:29.464Z,19.38
2017-06-15T01:28:29.462Z,19.24
2017-06-15T01:29:29.462Z,19.24
2017-06-15T01:30:29.459Z,19.29
2017-06-15T01:31:29.457Z,19.24
2017-06-15T01:32:29.457Z,19.26
2017-06-15T01:33:29.455Z,19.27
2017-06-15T01:34:29.451Z,19.22
2017-06-15T01:35:29.148Z,19.19
2017-06-15T01:36:29.147Z,19.19
2017-06-15T01:37:29.454Z,19.12
2017-06-15T01:38:29.449Z,19.16
2017-06-15T01:39:29.446Z,19.16
2017-06-15T01:40:29.446Z,19.15
2017-06-15T01:41:29.443Z,19.07
2017-06-15T01:42:29.137Z,19.15
2017-06-15T01:43:29.442Z,19.15
2017-06-15T01:44:29.439Z,19.16
2017-06-15T01:45:29.436Z,18.97
2017-06-15T01:46:29.156Z,19.04
2017-06-15T01:47:29.439Z,19.04
2017-06-15T01:48:29.436Z,19.04
2017-06-15T01:49:29.129Z,18.94
2017-06-15T01:50:29.431Z,18.97
2017-06-15T01:51:29.430Z,18.97
2017-06-15T01:52:29.429Z,18.94
2017-06-15T01:53:29.118Z,18.89
2017-06-15T01:54:29.423Z,18.92
2017-06-15T01:55:29.114Z,18.86
2017-06-15T01:56:29.424Z,18.91
2017-06-15T01:57:29.118Z,18.79
2017-06-15T01:58:29.419Z,18.78
2017-06-15T01:59:29.415Z,18.66
2017-06-15T02:00:29.420Z,18.66
2017-06-15T02:01:29.416Z,18.76
2017-06-15T02:02:29.412Z,18.67
2017-06-15T02:03:29.410Z,18.6
2017-06-15T02:04:29.412Z,18.73
2017-06-15T02:05:29.409Z,18.7
2017-06-15T02:06:29.407Z,18.66
2017-06-15T02:07:29.410Z,18.6
2017-06-15T02:08:29.405Z,18.58
2017-06-15T02:09:29.405Z,18.6
2017-06-15T02:10:29.403Z,18.6
2017-06-15T02:11:29.403Z,18.57
2017-06-15T02:12:29.401Z,18.57
2017-06-15T02:13:29.090Z,18.58
2017-06-15T02:14:29.396Z,18.49
2017-06-15T02:15:29.393Z,18.58
2017-06-15T02:16:29.396Z,18.57
2017-06-15T02:17:29.394Z,18.43
2017-06-15T02:18:29.389Z,18.45
2017-06-15T02:19:29.392Z,18.46
2017-06-15T02:20:29.388Z,18.43
2017-06-15T02:21:29.081Z,18.34
2017-06-15T02:22:29.389Z,18.43
2017-06-15T02:23:29.387Z,18.43
2017-06-15T02:24:29.381Z,18.49
2017-06-15T02:25:29.075Z,18.46
2017-06-15T02:26:29.074Z,18.49
2017-06-15T02:27:29.070Z,18.46
2017-06-15T02:28:29.418Z,18.46
2017-06-15T02:29:29.073Z,18.51
2017-06-15T02:30:29.377Z,18.53
2017-06-15T02:31:28.762Z,18.51
2017-06-15T02:32:29.063Z,18.6
2017-06-15T02:33:29.408Z,18.61
2017-06-15T02:34:29.371Z,18.67
2017-06-15T02:35:28.755Z,18.61
2017-06-15T02:36:29.060Z,18.61
2017-06-15T02:37:29.364Z,18.64
2017-06-15T02:38:29.362Z,18.64
2017-06-15T02:39:29.362Z,18.6
2017-06-15T02:40:29.362Z,18.61
2017-06-15T02:41:29.362Z,18.64
2017-06-15T02:42:29.361Z,18.49
2017-06-15T02:43:29.369Z,18.61
2017-06-15T02:44:29.048Z,18.57
2017-06-15T02:45:29.355Z,18.57
2017-06-15T02:46:29.351Z,18.61
2017-06-15T02:47:29.347Z,18.49
2017-06-15T02:48:29.349Z,18.52
2017-06-15T02:49:29.042Z,18.55
2017-06-15T02:50:29.040Z,18.51
2017-06-15T02:51:29.344Z,18.52
2017-06-15T02:52:29.341Z,18.48
2017-06-15T02:53:29.336Z,18.45
2017-06-15T02:54:29.337Z,18.42
2017-06-15T02:55:29.339Z,18.41
2017-06-15T02:56:29.039Z,18.42
2017-06-15T02:57:29.337Z,18.43
2017-06-15T02:58:29.335Z,18.42
2017-06-15T02:59:29.331Z,18.41
2017-06-15T03:00:29.331Z,18.41
2017-06-15T03:01:29.024Z,18.36
2017-06-15T03:02:29.330Z,18.33
2017-06-15T03:03:29.332Z,18.3
2017-06-15T03:04:29.016Z,18.43
2017-06-15T03:05:29.328Z,18.31
2017-06-15T03:06:29.323Z,18.33
2017-06-15T03:07:29.325Z,18.3
2017-06-15T03:08:29.320Z,18.33
2017-06-15T03:09:29.316Z,18.31
2017-06-15T03:10:29.315Z,18.41
2017-06-15T03:11:29.316Z,18.3
2017-06-15T03:12:29.312Z,18.33
2017-06-15T03:13:29.003Z,18.26
2017-06-15T03:14:28.702Z,18.33
2017-06-15T03:15:29.305Z,18.3
2017-06-15T03:16:29.309Z,18.37
2017-06-15T03:17:28.998Z,18.24
2017-06-15T03:18:29.000Z,18.31
2017-06-15T03:19:29.300Z,18.31
2017-06-15T03:20:29.304Z,18.26
2017-06-15T03:21:28.995Z,18.26
2017-06-15T03:22:28.993Z,18.31
2017-06-15T03:23:29.294Z,18.27
2017-06-15T03:24:29.297Z,18.23
2017-06-15T03:25:28.991Z,18.36
2017-06-15T03:26:28.985Z,18.28
2017-06-15T03:27:29.289Z,18.21
2017-06-15T03:28:29.288Z,18.16
2017-06-15T03:29:29.291Z,18.18
2017-06-15T03:30:29.286Z,18.21
2017-06-15T03:31:28.982Z,18.16
2017-06-15T03:32:29.286Z,18.15
2017-06-15T03:33:29.288Z,18.26
2017-06-15T03:34:29.281Z,18.19
2017-06-15T03:35:29.273Z,18.23
2017-06-15T03:36:28.978Z,18.24
2017-06-15T03:37:29.273Z,18.23
2017-06-15T03:38:28.968Z,18.18
2017-06-15T03:39:29.273Z,18.19
2017-06-15T03:40:28.965Z,18.3
2017-06-15T03:41:29.271Z,18.26
2017-06-15T03:42:29.266Z,18.3
2017-06-15T03:43:29.265Z,18.26
2017-06-15T03:44:29.263Z,18.45
2017-06-15T03:45:29.265Z,18.37
2017-06-15T03:46:29.263Z,18.34
2017-06-15T03:47:29.261Z,18.43
2017-06-15T03:48:29.259Z,18.36
2017-06-15T03:49:28.949Z,18.36
2017-06-15T03:50:29.258Z,18.46
2017-06-15T03:51:29.255Z,18.41
2017-06-15T03:52:29.250Z,18.43
2017-06-15T03:53:28.948Z,18.55
2017-06-15T03:54:29.251Z,18.52
2017-06-15T03:55:28.943Z,18.49
2017-06-15T03:56:29.249Z,18.63
2017-06-15T03:57:29.245Z,18.7
2017-06-15T03:58:29.246Z,18.74
2017-06-15T03:59:29.240Z,18.79
2017-06-15T04:00:29.251Z,18.81
2017-06-15T04:01:29.241Z,18.91
2017-06-15T04:02:28.935Z,18.94
2017-06-15T04:03:28.928Z,19.09
2017-06-15T04:04:29.242Z,19.04
2017-06-15T04:05:29.234Z,19.07
2017-06-15T04:06:29.234Z,19.17
2017-06-15T04:07:29.229Z,19.17
2017-06-15T04:08:29.231Z,19.2
2017-06-15T04:09:29.228Z,19.26
2017-06-15T04:10:28.920Z,19.24
2017-06-15T04:11:28.917Z,19.27
2017-06-15T04:12:29.222Z,19.26
2017-06-15T04:13:29.223Z,19.26
2017-06-15T04:14:29.220Z,19.26
2017-06-15T04:15:29.218Z,19.34
2017-06-15T04:16:29.219Z,19.32
2017-06-15T04:17:29.219Z,19.42
2017-06-15T04:18:29.216Z,19.53
2017-06-15T04:19:29.213Z,19.67
2017-06-15T04:20:29.212Z,19.74
2017-06-15T04:21:28.602Z,19.89
2017-06-15T04:22:29.215Z,19.77
2017-06-15T04:23:29.208Z,19.85
2017-06-15T04:24:29.206Z,19.71
2017-06-15T04:25:29.206Z,19.66
2017-06-15T04:26:28.899Z,19.52
2017-06-15T04:27:29.206Z,19.44
2017-06-15T04:28:29.201Z,19.41
2017-06-15T04:29:29.201Z,19.48
2017-06-15T04:30:29.201Z,19.37
2017-06-15T04:31:28.892Z,19.38
2017-06-15T04:32:28.891Z,19.34
2017-06-15T04:33:29.193Z,19.37
2017-06-15T04:34:28.886Z,19.26
2017-06-15T04:35:29.192Z,19.26
2017-06-15T04:36:29.190Z,19.26
2017-06-15T04:37:29.191Z,19.34
2017-06-15T04:38:29.187Z,19.29
2017-06-15T04:39:29.186Z,19.29
2017-06-15T04:40:29.188Z,19.37
2017-06-15T04:41:29.187Z,19.24
2017-06-15T04:42:29.184Z,19.38
2017-06-15T04:43:28.880Z,19.41
2017-06-15T04:44:29.184Z,19.47
2017-06-15T04:45:29.181Z,19.48
2017-06-15T04:46:29.183Z,19.57
2017-06-15T04:47:28.875Z,19.87
2017-06-15T04:48:29.172Z,20.15
2017-06-15T04:49:29.176Z,20.58
2017-06-15T04:50:29.174Z,21
2017-06-15T04:51:29.178Z,21.51
2017-06-15T04:52:28.866Z,21.8
2017-06-15T04:53:29.168Z,22.08
2017-06-15T04:54:28.864Z,22.28
2017-06-15T04:55:28.862Z,22.51
2017-06-15T04:56:28.564Z,22.65
2017-06-15T04:57:29.168Z,22.83
2017-06-15T04:58:29.168Z,23.07
2017-06-15T04:59:28.860Z,23.32
2017-06-15T05:00:29.162Z,23.55
2017-06-15T05:01:29.167Z,23.76
2017-06-15T05:02:29.167Z,23.95
2017-06-15T05:03:29.164Z,24.26
2017-06-15T05:04:29.163Z,24.41
2017-06-15T05:05:29.160Z,24.51
2017-06-15T05:06:29.166Z,24.53
2017-06-15T05:07:29.162Z,24.78
2017-06-15T05:08:29.166Z,24.84
2017-06-15T05:09:29.165Z,24.93
2017-06-15T05:10:29.164Z,25.09
2017-06-15T05:11:29.164Z,25.25
2017-06-15T05:12:29.215Z,25.16
2017-06-15T05:13:29.166Z,25.26
2017-06-15T05:14:28.862Z,25.39
2017-06-15T05:15:29.164Z,25.71
2017-06-15T05:16:28.859Z,25.76
2017-06-15T05:17:29.163Z,25.95
2017-06-15T05:18:29.168Z,26.01
2017-06-15T05:19:29.164Z,26.11
2017-06-15T05:20:28.864Z,26.13
2017-06-15T05:21:29.172Z,26.27
2017-06-15T05:22:29.172Z,26.34
2017-06-15T05:23:29.173Z,26.34
2017-06-15T05:24:29.171Z,26.41
2017-06-15T05:25:29.172Z,26.48
2017-06-15T05:26:29.175Z,26.49
2017-06-15T05:27:29.172Z,26.64
2017-06-15T05:28:29.177Z,26.64
2017-06-15T05:29:28.872Z,26.74
2017-06-15T05:30:28.873Z,26.88
2017-06-15T05:31:28.876Z,27.04
2017-06-15T05:32:29.182Z,27.22
2017-06-15T05:33:28.874Z,27.34
2017-06-15T05:34:28.880Z,27.53
2017-06-15T05:35:29.186Z,27.78
2017-06-15T05:36:29.186Z,28.01
2017-06-15T05:37:29.195Z,28.12
2017-06-15T05:38:28.883Z,28.38
2017-06-15T05:39:28.884Z,28.59
2017-06-15T05:40:29.195Z,28.64
2017-06-15T05:41:29.196Z,28.87
2017-06-15T05:42:28.587Z,28.97
2017-06-15T05:43:28.894Z,28.92
2017-06-15T05:44:28.897Z,28.92
2017-06-15T05:45:29.205Z,29.05
2017-06-15T05:46:29.208Z,29.15
2017-06-15T05:47:29.213Z,29.28
2017-06-15T05:48:29.209Z,29.28
2017-06-15T05:49:28.915Z,29.28
2017-06-15T05:50:28.911Z,29.22
2017-06-15T05:51:29.223Z,29.22
2017-06-15T05:52:29.222Z,29.3
2017-06-15T05:53:29.228Z,29.44
2017-06-15T05:54:29.228Z,29.61
2017-06-15T05:55:29.230Z,29.74
2017-06-15T05:56:29.233Z,29.84
2017-06-15T05:57:29.239Z,30.11
2017-06-15T05:58:28.631Z,30.32
2017-06-15T05:59:29.243Z,30.51
2017-06-15T06:00:29.246Z,30.65
2017-06-15T06:01:29.256Z,30.63
2017-06-15T06:02:28.949Z,30.67
2017-06-15T06:03:29.255Z,30.69
2017-06-15T06:04:29.260Z,30.73
2017-06-15T06:05:29.267Z,30.83
2017-06-15T06:06:29.270Z,31
2017-06-15T06:07:29.271Z,31.17
2017-06-15T06:08:29.279Z,31.26
2017-06-15T06:09:28.974Z,31.42
2017-06-15T06:10:29.288Z,31.48
2017-06-15T06:11:28.979Z,31.73
2017-06-15T06:12:29.289Z,31.81
2017-06-15T06:13:29.299Z,32
2017-06-15T06:14:29.299Z,32.16
2017-06-15T06:15:29.302Z,32.35
2017-06-15T06:16:29.306Z,32.46
2017-06-15T06:17:29.006Z,32.39
2017-06-15T06:18:29.007Z,32.56
2017-06-15T06:19:29.013Z,32.59
2017-06-15T06:20:29.324Z,32.79
2017-06-15T06:21:29.027Z,33
2017-06-15T06:22:29.334Z,33.13
2017-06-15T06:23:29.336Z,33.29
2017-06-15T06:24:29.341Z,33.36
2017-06-15T06:25:29.036Z,33.4
2017-06-15T06:26:29.350Z,33.54
2017-06-15T06:27:29.048Z,33.63
2017-06-15T06:28:29.360Z,33.66
2017-06-15T06:29:29.365Z,33.85
2017-06-15T06:30:29.371Z,33.88
2017-06-15T06:31:29.368Z,33.94
2017-06-15T06:32:29.068Z,33.98
2017-06-15T06:33:29.381Z,33.82
2017-06-15T06:34:29.383Z,33.87
2017-06-15T06:35:29.080Z,33.97
2017-06-15T06:36:28.779Z,34.22
2017-06-15T06:37:29.090Z,34.33
2017-06-15T06:38:29.401Z,34.51
2017-06-15T06:39:29.403Z,34.59
2017-06-15T06:40:29.607Z,34.63
2017-06-15T06:41:29.109Z,34.79
2017-06-15T06:42:29.112Z,34.83
2017-06-15T06:43:29.418Z,35.03
2017-06-15T06:44:29.425Z,35.2
2017-06-15T06:45:29.121Z,35.44
2017-06-15T06:46:29.434Z,35.42
2017-06-15T06:47:29.127Z,35.57
2017-06-15T06:48:29.440Z,35.68
2017-06-15T06:49:29.439Z,35.78
2017-06-15T06:50:29.449Z,35.9
2017-06-15T06:51:29.145Z,36.09
2017-06-15T06:52:29.460Z,36.16
2017-06-15T06:53:29.195Z,36.13
2017-06-15T06:54:28.848Z,36.2
2017-06-15T06:55:29.160Z,36.26
2017-06-15T06:56:29.162Z,36.33
2017-06-15T06:57:29.170Z,36.39
2017-06-15T06:58:29.170Z,36.41
2017-06-15T06:59:29.176Z,36.54
2017-06-15T07:00:29.485Z,36.6
2017-06-15T07:01:29.486Z,36.5
2017-06-15T07:02:29.489Z,36.24
2017-06-15T07:03:29.491Z,35.98
2017-06-15T07:04:29.493Z,36.16
2017-06-15T07:05:29.498Z,36.25
2017-06-15T07:06:29.537Z,36.38
2017-06-15T07:07:29.506Z,36.5
2017-06-15T07:08:29.511Z,36.69
2017-06-15T07:09:29.508Z,36.8
2017-06-15T07:10:29.517Z,36.81
2017-06-15T07:11:29.517Z,36.75
2017-06-15T07:12:29.522Z,36.82
2017-06-15T07:13:29.223Z,36.82
2017-06-15T07:14:29.526Z,36.81
2017-06-15T07:15:29.221Z,36.89
2017-06-15T07:16:29.527Z,36.89
2017-06-15T07:17:29.227Z,36.85
2017-06-15T07:18:29.535Z,37.03
2017-06-15T07:19:29.539Z,37.19
2017-06-15T07:20:29.238Z,37.48
2017-06-15T07:21:29.236Z,37.56
2017-06-15T07:22:29.545Z,37.67
2017-06-15T07:23:29.547Z,37.67
2017-06-15T07:24:29.550Z,37.61
2017-06-15T07:25:29.553Z,37.64
2017-06-15T07:26:29.558Z,37.76
2017-06-15T07:27:29.562Z,37.8
2017-06-15T07:28:29.563Z,37.92
2017-06-15T07:29:29.557Z,38.13
2017-06-15T07:30:29.563Z,38.25
2017-06-15T07:31:29.261Z,38.41
2017-06-15T07:32:29.572Z,38.51
2017-06-15T07:33:29.571Z,38.58
2017-06-15T07:34:29.267Z,38.72
2017-06-15T07:35:29.269Z,38.69
2017-06-15T07:36:29.272Z,38.72
2017-06-15T07:37:29.282Z,38.88
2017-06-15T07:38:29.275Z,38.77
2017-06-15T07:39:29.279Z,38.72
2017-06-15T07:40:29.276Z,38.63
2017-06-15T07:41:29.589Z,38.66
2017-06-15T07:42:29.287Z,38.51
2017-06-15T07:43:29.599Z,38.29
2017-06-15T07:44:29.596Z,38.2
2017-06-15T07:45:29.593Z,38.2
2017-06-15T07:46:29.595Z,38.31
2017-06-15T07:47:29.600Z,38.2
2017-06-15T07:48:29.600Z,38.09
2017-06-15T07:49:29.605Z,38.17
2017-06-15T07:50:29.605Z,38.42
2017-06-15T07:51:29.305Z,38.46
2017-06-15T07:52:29.611Z,38.53
2017-06-15T07:53:29.619Z,38.68
2017-06-15T07:54:29.616Z,38.62
2017-06-15T07:55:29.617Z,38.54
2017-06-15T07:56:29.620Z,38.2
2017-06-15T07:57:29.618Z,38.1
2017-06-15T07:58:29.621Z,38.14
2017-06-15T07:59:29.317Z,38.29
2017-06-15T08:00:29.625Z,38.41
2017-06-15T08:01:29.628Z,38.56
2017-06-15T08:02:29.632Z,38.65
2017-06-15T08:03:29.630Z,38.95
2017-06-15T08:04:29.634Z,39.03
2017-06-15T08:05:29.327Z,39.12
2017-06-15T08:06:29.330Z,39.14
2017-06-15T08:07:29.330Z,39.14
2017-06-15T08:08:29.640Z,39.2
2017-06-15T08:09:29.642Z,39.27
2017-06-15T08:10:29.640Z,39.32
2017-06-15T08:11:29.643Z,39.38
2017-06-15T08:12:29.655Z,39.51
2017-06-15T08:13:29.646Z,39.63
2017-06-15T08:14:29.646Z,39.6
2017-06-15T08:15:29.342Z,39.59
2017-06-15T08:16:29.345Z,39.66
2017-06-15T08:17:29.655Z,39.63
2017-06-15T08:18:29.654Z,39.51
2017-06-15T08:19:29.655Z,39.37
2017-06-15T08:20:29.354Z,39.25
2017-06-15T08:21:29.354Z,39.23
2017-06-15T08:22:29.659Z,39.37
2017-06-15T08:23:29.355Z,39.27
2017-06-15T08:24:29.663Z,39.42
2017-06-15T08:25:29.357Z,39.37
2017-06-15T08:26:29.668Z,39.34
2017-06-15T08:27:29.666Z,39.44
2017-06-15T08:28:29.669Z,39.54
2017-06-15T08:29:29.361Z,39.54
2017-06-15T08:30:29.373Z,39.67
2017-06-15T08:31:29.671Z,39.59
2017-06-15T08:32:29.674Z,39.54
2017-06-15T08:33:29.065Z,39.39
2017-06-15T08:34:29.677Z,39.44
2017-06-15T08:35:29.390Z,39.6
2017-06-15T08:36:29.679Z,39.48
2017-06-15T08:37:29.065Z,39.45
2017-06-15T08:38:29.678Z,39.49
2017-06-15T08:39:29.373Z,39.49
2017-06-15T08:40:29.383Z,39.57
2017-06-15T08:41:29.681Z,39.6
2017-06-15T08:42:29.404Z,39.7
2017-06-15T08:43:29.686Z,39.67
2017-06-15T08:44:29.377Z,39.6
2017-06-15T08:45:29.690Z,39.67
2017-06-15T08:46:29.388Z,39.68
2017-06-15T08:47:29.685Z,39.76
2017-06-15T08:48:29.693Z,39.73
2017-06-15T08:49:29.383Z,39.59
2017-06-15T08:50:29.386Z,39.37
2017-06-15T08:51:29.389Z,39.14
2017-06-15T08:52:29.697Z,38.57
2017-06-15T08:53:29.692Z,38.13
2017-06-15T08:54:29.704Z,37.5
2017-06-15T08:55:29.699Z,36.92
2017-06-15T08:56:29.392Z,36.26
2017-06-15T08:57:29.396Z,35.75
2017-06-15T08:58:29.699Z,35.3
2017-06-15T08:59:29.393Z,34.88
2017-06-15T09:00:29.394Z,34.41
2017-06-15T09:01:29.434Z,34.1
2017-06-15T09:02:29.700Z,33.69
2017-06-15T09:03:29.710Z,33.29
2017-06-15T09:04:29.706Z,32.98
2017-06-15T09:05:29.705Z,32.91
2017-06-15T09:06:29.718Z,32.63
2017-06-15T09:07:29.710Z,32.46
2017-06-15T09:08:29.708Z,32.34
2017-06-15T09:09:29.714Z,32.24
2017-06-15T09:10:29.708Z,32.17
2017-06-15T09:11:29.405Z,32.15
2017-06-15T09:12:29.711Z,32.12
2017-06-15T09:13:29.713Z,32.04
2017-06-15T09:14:29.404Z,32.09
2017-06-15T09:15:29.409Z,32.09
2017-06-15T09:16:29.715Z,31.97
2017-06-15T09:17:29.409Z,31.95
2017-06-15T09:18:29.710Z,32.02
2017-06-15T09:19:29.715Z,31.95
2017-06-15T09:20:29.713Z,31.87
2017-06-15T09:21:29.749Z,31.89
2017-06-15T09:22:29.409Z,31.85
2017-06-15T09:23:29.717Z,31.69
2017-06-15T09:24:29.728Z,31.59
2017-06-15T09:25:29.722Z,31.55
2017-06-15T09:26:29.418Z,31.44
2017-06-15T09:27:29.720Z,31.33
2017-06-15T09:28:29.722Z,31.17
2017-06-15T09:29:29.720Z,31.08
2017-06-15T09:30:29.413Z,30.93
2017-06-15T09:31:29.725Z,30.99
2017-06-15T09:32:29.416Z,30.96
2017-06-15T09:33:29.726Z,30.98
2017-06-15T09:34:29.726Z,31
2017-06-15T09:35:29.726Z,30.98
2017-06-15T09:36:29.724Z,30.99
2017-06-15T09:37:29.418Z,30.98
2017-06-15T09:38:29.419Z,31
2017-06-15T09:39:29.729Z,31
2017-06-15T09:40:29.729Z,31.08
2017-06-15T09:41:29.735Z,31
2017-06-15T09:42:29.420Z,30.88
2017-06-15T09:43:29.727Z,30.78
2017-06-15T09:44:29.725Z,30.81
2017-06-15T09:45:29.730Z,30.74
2017-06-15T09:46:29.730Z,30.8
2017-06-15T09:47:29.427Z,30.85
2017-06-15T09:48:29.730Z,30.86
2017-06-15T09:49:29.117Z,30.76
2017-06-15T09:50:29.735Z,30.7
2017-06-15T09:51:29.119Z,30.71
2017-06-15T09:52:29.735Z,30.62
2017-06-15T09:53:29.737Z,30.52
2017-06-15T09:54:29.737Z,30.49
2017-06-15T09:55:29.730Z,30.48
2017-06-15T09:56:29.733Z,30.39
2017-06-15T09:57:29.733Z,30.52
2017-06-15T09:58:29.426Z,30.58
2017-06-15T09:59:29.430Z,30.62
2017-06-15T10:00:29.735Z,30.62
2017-06-15T10:01:29.432Z,30.65
2017-06-15T10:02:29.735Z,30.62
2017-06-15T10:03:29.732Z,30.62
2017-06-15T10:04:29.429Z,30.54
2017-06-15T10:05:29.735Z,30.54
2017-06-15T10:06:29.740Z,30.58
2017-06-15T10:07:29.736Z,30.56
2017-06-15T10:08:29.737Z,30.63
2017-06-15T10:09:29.430Z,30.58
2017-06-15T10:10:29.740Z,30.58
2017-06-15T10:11:29.739Z,30.58
2017-06-15T10:12:29.738Z,30.46
2017-06-15T10:13:29.735Z,30.55
2017-06-15T10:14:29.741Z,30.52
2017-06-15T10:15:29.739Z,30.44
2017-06-15T10:16:29.435Z,30.36
2017-06-15T10:17:29.739Z,30.48
2017-06-15T10:18:29.739Z,30.36
2017-06-15T10:19:29.739Z,30.44
2017-06-15T10:20:29.432Z,30.48
2017-06-15T10:21:29.743Z,30.39
2017-06-15T10:22:29.436Z,30.51
2017-06-15T10:23:29.131Z,30.36
2017-06-15T10:24:29.743Z,30.26
2017-06-15T10:25:29.435Z,30.23
2017-06-15T10:26:29.435Z,30.33
2017-06-15T10:27:29.436Z,30.2
2017-06-15T10:28:29.440Z,30.21
2017-06-15T10:29:29.740Z,30.17
2017-06-15T10:30:29.743Z,30.14
2017-06-15T10:31:29.744Z,30.1
2017-06-15T10:32:29.743Z,30.2
2017-06-15T10:33:29.745Z,30.14
2017-06-15T10:34:29.773Z,30.18
2017-06-15T10:35:29.749Z,30.2
2017-06-15T10:36:29.749Z,30.24
2017-06-15T10:37:29.440Z,30.17
2017-06-15T10:38:29.441Z,30.27
2017-06-15T10:39:29.751Z,30.23
2017-06-15T10:40:29.442Z,30.26
2017-06-15T10:41:29.483Z,30.33
2017-06-15T10:42:29.746Z,30.33
2017-06-15T10:43:29.748Z,30.32
2017-06-15T10:44:29.746Z,30.43
2017-06-15T10:45:29.749Z,30.4
2017-06-15T10:46:29.747Z,30.38
2017-06-15T10:47:29.446Z,30.27
2017-06-15T10:48:29.750Z,30.33
2017-06-15T10:49:29.749Z,30.24
2017-06-15T10:50:29.139Z,30.29
2017-06-15T10:51:29.767Z,30.33
2017-06-15T10:52:29.440Z,30.23
2017-06-15T10:53:29.962Z,30.26
2017-06-15T10:54:29.753Z,30.29
2017-06-15T10:55:29.749Z,30.27
2017-06-15T10:56:29.445Z,30.39
2017-06-15T10:57:29.752Z,30.39
2017-06-15T10:58:29.751Z,30.51
2017-06-15T10:59:29.445Z,30.56
2017-06-15T11:00:29.750Z,30.56
2017-06-15T11:01:29.752Z,30.59
2017-06-15T11:02:29.752Z,30.61
2017-06-15T11:03:29.753Z,30.61
2017-06-15T11:04:29.443Z,30.56
2017-06-15T11:05:29.754Z,30.62
2017-06-15T11:06:29.749Z,30.39
2017-06-15T11:07:29.447Z,30.33
2017-06-15T11:08:29.449Z,30.29
2017-06-15T11:09:29.143Z,30.21
2017-06-15T11:10:29.447Z,30.21
2017-06-15T11:11:29.754Z,30.21
2017-06-15T11:12:29.759Z,30.17
2017-06-15T11:13:29.755Z,30.26
2017-06-15T11:14:29.759Z,30.21
2017-06-15T11:15:29.448Z,30.36
2017-06-15T11:16:29.754Z,30.44
2017-06-15T11:17:29.447Z,30.52
2017-06-15T11:18:29.451Z,30.49
2017-06-15T11:19:29.757Z,30.54
2017-06-15T11:20:29.760Z,30.61
2017-06-15T11:21:29.756Z,30.7
2017-06-15T11:22:29.758Z,30.67
2017-06-15T11:23:29.758Z,30.61
2017-06-15T11:24:29.758Z,30.51
2017-06-15T11:25:29.755Z,30.49
2017-06-15T11:26:29.451Z,30.51
2017-06-15T11:27:29.450Z,30.51
2017-06-15T11:28:29.449Z,30.44
2017-06-15T11:29:29.450Z,30.36
2017-06-15T11:30:29.757Z,30.26
2017-06-15T11:31:29.761Z,30.23
2017-06-15T11:32:29.760Z,30.14
2017-06-15T11:33:29.760Z,30.27
2017-06-15T11:34:29.762Z,30.26
2017-06-15T11:35:29.760Z,30.23
2017-06-15T11:36:29.757Z,30.23
2017-06-15T11:37:29.763Z,30.2
2017-06-15T11:38:29.762Z,30.33
2017-06-15T11:39:29.761Z,30.24
2017-06-15T11:40:29.764Z,30.29
2017-06-15T11:41:29.454Z,30.24
2017-06-15T11:42:29.457Z,30.21
2017-06-15T11:43:29.451Z,30.29
2017-06-15T11:44:29.760Z,30.26
2017-06-15T11:45:29.149Z,30.32
2017-06-15T11:46:29.762Z,30.29
2017-06-15T11:47:29.147Z,30.35
2017-06-15T11:48:29.765Z,30.23
2017-06-15T11:49:29.765Z,30.26
2017-06-15T11:50:29.766Z,30.29
2017-06-15T11:51:29.768Z,30.29
2017-06-15T11:52:29.764Z,30.24
2017-06-15T11:53:29.455Z,30.24
2017-06-15T11:54:29.150Z,30.27
2017-06-15T11:55:29.764Z,30.33
2017-06-15T11:56:29.767Z,30.35
2017-06-15T11:57:29.458Z,30.46
2017-06-15T11:58:29.462Z,30.36
2017-06-15T11:59:29.763Z,30.38
2017-06-15T12:00:29.767Z,30.4
2017-06-15T12:01:29.152Z,30.24
2017-06-15T12:02:29.763Z,30.16
2017-06-15T12:03:29.763Z,30.08
2017-06-15T12:04:29.156Z,30.08
2017-06-15T12:05:29.159Z,29.99
2017-06-15T12:06:29.769Z,30.05
2017-06-15T12:07:29.459Z,30.1
2017-06-15T12:08:29.768Z,30.03
2017-06-15T12:09:29.462Z,30.05
2017-06-15T12:10:29.463Z,30.06
2017-06-15T12:11:29.766Z,30.11
2017-06-15T12:12:29.768Z,30.11
2017-06-15T12:13:29.461Z,30.14
2017-06-15T12:14:29.766Z,30.14
2017-06-15T12:15:29.160Z,30.13
2017-06-15T12:16:29.177Z,30.14
2017-06-15T12:17:29.460Z,30.08
2017-06-15T12:18:29.465Z,30.08
2017-06-15T12:19:29.462Z,29.94
2017-06-15T12:20:29.462Z,29.96
2017-06-15T12:21:29.769Z,29.98
2017-06-15T12:22:29.463Z,30.01
2017-06-15T12:23:29.768Z,29.98
2017-06-15T12:24:29.767Z,29.98
2017-06-15T12:25:29.770Z,29.94
2017-06-15T12:26:29.768Z,30.01
2017-06-15T12:27:29.463Z,30.03
2017-06-15T12:28:29.460Z,29.99
2017-06-15T12:29:29.781Z,30.1
2017-06-15T12:30:29.769Z,30.02
2017-06-15T12:31:29.773Z,30.13
2017-06-15T12:32:29.463Z,30.14
2017-06-15T12:33:29.464Z,30.11
2017-06-15T12:34:29.467Z,30.14
2017-06-15T12:35:29.772Z,30.2
2017-06-15T12:36:29.768Z,30.24
2017-06-15T12:37:29.782Z,30.27
2017-06-15T12:38:29.463Z,30.29
2017-06-15T12:39:29.164Z,30.17
2017-06-15T12:40:29.466Z,30.17
2017-06-15T12:41:29.770Z,30.08
2017-06-15T12:42:29.465Z,30.06
2017-06-15T12:43:29.464Z,30.08
2017-06-15T12:44:29.772Z,30.13
2017-06-15T12:45:29.770Z,30.14
2017-06-15T12:46:29.775Z,30.16
2017-06-15T12:47:29.773Z,30.29
2017-06-15T12:48:29.466Z,30.24
2017-06-15T12:49:29.774Z,30.26
2017-06-15T12:50:29.465Z,30.24
2017-06-15T12:51:29.775Z,30.18
2017-06-15T12:52:29.464Z,30.17
2017-06-15T12:53:29.773Z,30.17
2017-06-15T12:54:29.772Z,30.23
2017-06-15T12:55:29.468Z,30.23